KJMS

Jamestown Regional Airport

Jamestown, North Dakota, USA
KJMS 241726Z 2417/2518 31009KT P6SM BKN015 FM242000 31008KT P6SM SCT020 SCT110 FM250700 VRB04KT P6SM VCSH BKN070 FM251200 32006KT P6SM BKN045 FM251700 29010G17KT P6SM BKN080
Issued Valid From Valid To
Sep-24 @ 17:26 UTC
(2 hours ago)
Sep-24 @ 17:00 UTC
(2 hours ago)
Sep-25 @ 18:00 UTC
(in 23 hours)
Sep-24 @ 17:00 to Sep-24 @ 20:00
KJMS 241726Z 2417/2518 31009KT P6SM BKN015
Wind Visibility Clouds
310° at 9 knots Greater than 6 miles
  • Broken at 1,500' AGL
From Sep-24 @ 20:00 to Sep-25 @ 07:00
FM242000 31008KT P6SM SCT020 SCT110
Wind Visibility Clouds
310° at 8 knots Greater than 6 miles
  • Scattered at 2,000' AGL
  • Scattered at 11,000' AGL
From Sep-25 @ 07:00 to Sep-25 @ 12:00
FM250700 VRB04KT P6SM VCSH BKN070
Wind Visibility Clouds
Variable at 4 knots Greater than 6 miles
  • Broken at 7,000' AGL
From Sep-25 @ 12:00 to Sep-25 @ 17:00
FM251200 32006KT P6SM BKN045
Wind Visibility Clouds
320° at 6 knots Greater than 6 miles
  • Broken at 4,500' AGL
From Sep-25 @ 17:00 to Sep-25 @ 18:00
FM251700 29010G17KT P6SM BKN080
Wind Visibility Clouds
290° at 10 knots
 Gusting to 17 knots
Greater than 6 miles
  • Broken at 8,000' AGL
KJMS 241726Z 2417/2518 31009KT P6SM BKN015 FM242000 31008KT P6SM SCT020 SCT110 FM250700 VRB04KT P6SM VCSH BKN070 FM251200 32006KT P6SM BKN045 FM251700 29010G17KT P6SM BKN080
Issued Sep-24 @ 17:26 UTC
(2 hours ago)
Valid From Sep-24 @ 17:00 UTC
(2 hours ago)
Valid To Sep-25 @ 18:00 UTC
(in 23 hours)
Sep-24 @ 17:00 - Sep-24 @ 20:00
Wind Visibility
310° at 9 knots Greater than 6 miles
Clouds
  • Broken at 1,500' AGL
From Sep-24 @ 20:00 - Sep-25 @ 07:00
Wind Visibility
310° at 8 knots Greater than 6 miles
Clouds
  • Scattered at 2,000' AGL
  • Scattered at 11,000' AGL
From Sep-25 @ 07:00 - Sep-25 @ 12:00
Wind Visibility
Variable at 4 knots Greater than 6 miles
Clouds
  • Broken at 7,000' AGL
From Sep-25 @ 12:00 - Sep-25 @ 17:00
Wind Visibility
320° at 6 knots Greater than 6 miles
Clouds
  • Broken at 4,500' AGL
From Sep-25 @ 17:00 - Sep-25 @ 18:00
Wind Visibility
290° at 10 knots
 Gusting to 17 knots
Greater than 6 miles
Clouds
  • Broken at 8,000' AGL